^^
Grace C. Lehan Memorial Weather Station Historical Data
Daily Summary for November 21, 2021 Units:  Both    English   Metric
Daily Weekly Monthly Yearly
  High: Low: Average:
Temperature: 56.5 °F /  13.6 °C 37.1 °F /  2.8 °C 46.6 °F /  8.1 °C
Dew Point: 49.9 °F /  9.9 °C 31.2 °F /  -0.4 °C 38.9 °F /  3.8 °C
Humidity: 95% 42% 76%
Wind Speed: 3.9mph /  6.3km/h - 0.3mph /  0.5km/h
Wind Gust: 11mph /  17.7km/h - -
Wind- - SSW
Pressure: 30.38 in /  1028.7 hPa 29.91 in /  1012.8 hPa -
Precipitation: 0.05 in /  1.27 mm    
 
 
Tabular Data for November 21, 2021
Time Temperature Dew Point Pressure Wind Wind Speed Wind Gust Humidity Rainfall Rate (Hourly) solar
00:04 37.1 °F /  2.8 °C 31.2 °F /  -0.4 °C 30.38in /  1028.7hPa Calm     79% 0.00in /  0mm 0 W/m2
00:09 37.1 °F /  2.8 °C 31.5 °F /  -0.3 °C 30.38in /  1028.7hPa Calm     79.8% 0.00in /  0mm 0 W/m2
00:14 37.3 °F /  2.9 °C 31.7 °F /  -0.2 °C 30.37in /  1028.3hPa Calm     80% 0.00in /  0mm 0 W/m2
00:19 37.3 °F /  2.9 °C 31.7 °F /  -0.2 °C 30.37in /  1028.3hPa Calm     80% 0.00in /  0mm 0 W/m2
00:24 37.4 °F /  3 °C 31.8 °F /  -0.1 °C 30.37in /  1028.3hPa Calm     80% 0.00in /  0mm 0 W/m2
00:29 37.5 °F /  3.1 °C 31.9 °F /  -0.1 °C 30.37in /  1028.3hPa Calm     80% 0.00in /  0mm 0 W/m2
00:34 37.6 °F /  3.1 °C 32.2 °F /  0.1 °C 30.36in /  1028hPa Calm     80.6% 0.00in /  0mm 0 W/m2
00:39 37.7 °F /  3.2 °C 32.4 °F /  0.2 °C 30.37in /  1028.3hPa Calm     81% 0.00in /  0mm 0 W/m2
00:44 37.7 °F /  3.2 °C 32.4 °F /  0.2 °C 30.37in /  1028.3hPa Calm     81% 0.00in /  0mm 0 W/m2
00:49 37.8 °F /  3.2 °C 32.5 °F /  0.3 °C 30.36in /  1028hPa Calm     81% 0.00in /  0mm 0 W/m2
00:54 37.9 °F /  3.3 °C 32.6 °F /  0.3 °C 30.36in /  1028hPa Calm     81% 0.00in /  0mm 0 W/m2
00:59 38.1 °F /  3.4 °C 32.8 °F /  0.4 °C 30.35in /  1027.7hPa Calm     81.3% 0.00in /  0mm 0 W/m2
01:04 38.2 °F /  3.4 °C 33.2 °F /  0.7 °C 30.35in /  1027.7hPa Calm     82% 0.00in /  0mm 0 W/m2
01:09 38.3 °F /  3.5 °C 33.3 °F /  0.7 °C 30.35in /  1027.7hPa Calm     82% 0.00in /  0mm 0 W/m2
01:14 38.4 °F /  3.6 °C 33.3 °F /  0.7 °C 30.35in /  1027.7hPa Calm     81.7% 0.00in /  0mm 0 W/m2
01:19 38.3 °F /  3.5 °C 33 °F /  0.6 °C 30.34in /  1027.3hPa Calm     81% 0.00in /  0mm 0 W/m2
01:24 38.2 °F /  3.4 °C 32.9 °F /  0.5 °C 30.35in /  1027.7hPa Calm     81% 0.00in /  0mm 0 W/m2
01:29 38.1 °F /  3.4 °C 32.9 °F /  0.5 °C 30.35in /  1027.7hPa Calm     81.3% 0.00in /  0mm 0 W/m2
01:34 38 °F /  3.3 °C 33 °F /  0.6 °C 30.35in /  1027.7hPa Calm     81.8% 0.00in /  0mm 0 W/m2
01:39 38 °F /  3.3 °C 33 °F /  0.6 °C 30.35in /  1027.7hPa Calm     82% 0.00in /  0mm 0 W/m2
01:44 37.9 °F /  3.3 °C 32.9 °F /  0.5 °C 30.35in /  1027.7hPa Calm     82% 0.00in /  0mm 0 W/m2
01:49 37.9 °F /  3.3 °C 33.1 °F /  0.6 °C 30.35in /  1027.7hPa Calm     82.7% 0.00in /  0mm 0 W/m2
01:54 37.9 °F /  3.3 °C 33.2 °F /  0.7 °C 30.35in /  1027.7hPa Calm     83% 0.00in /  0mm 0 W/m2
01:59 38.1 °F /  3.4 °C 33.5 °F /  0.8 °C 30.35in /  1027.7hPa Calm     83.5% 0.00in /  0mm 0 W/m2
02:04 38.2 °F /  3.4 °C 33.8 °F /  1 °C 30.35in /  1027.7hPa Calm     84% 0.00in /  0mm 0 W/m2
02:09 38.3 °F /  3.5 °C 33.9 °F /  1.1 °C 30.35in /  1027.7hPa Calm     84% 0.00in /  0mm 0 W/m2
02:14 38.4 °F /  3.6 °C 34 °F /  1.1 °C 30.35in /  1027.7hPa Calm     84% 0.00in /  0mm 0 W/m2
02:19 38.5 °F /  3.6 °C 34.1 °F /  1.2 °C 30.36in /  1028hPa Calm     84% 0.00in /  0mm 0 W/m2
02:24 38.5 °F /  3.6 °C 34.1 °F /  1.2 °C 30.36in /  1028hPa Calm     84% 0.00in /  0mm 0 W/m2
02:29 38.5 °F /  3.6 °C 34.1 °F /  1.2 °C 30.35in /  1027.7hPa Calm     84% 0.00in /  0mm 0 W/m2
02:34 38.3 °F /  3.5 °C 33.8 °F /  1 °C 30.35in /  1027.7hPa Calm     83.6% 0.00in /  0mm 0 W/m2
02:39 38.2 °F /  3.4 °C 33.5 °F /  0.8 °C 30.35in /  1027.7hPa Calm     83% 0.00in /  0mm 0 W/m2
02:44 38.1 °F /  3.4 °C 33.4 °F /  0.8 °C 30.35in /  1027.7hPa Calm     83% 0.00in /  0mm 0 W/m2
02:49 37.9 °F /  3.3 °C 33.5 °F /  0.8 °C 30.35in /  1027.7hPa Calm     83.8% 0.00in /  0mm 0 W/m2
02:54 37.9 °F /  3.3 °C 33.5 °F /  0.8 °C 30.35in /  1027.7hPa Calm     84% 0.00in /  0mm 0 W/m2
02:59 37.8 °F /  3.2 °C 33.4 °F /  0.8 °C 30.34in /  1027.3hPa Calm     84% 0.00in /  0mm 0 W/m2
03:04 37.8 °F /  3.2 °C 33.6 °F /  0.9 °C 30.34in /  1027.3hPa Calm     84.7% 0.00in /  0mm 0 W/m2
03:09 37.8 °F /  3.2 °C 33.7 °F /  0.9 °C 30.34in /  1027.3hPa Calm     85% 0.00in /  0mm 0 W/m2
03:14 37.8 °F /  3.2 °C 33.7 °F /  0.9 °C 30.34in /  1027.3hPa Calm     85% 0.00in /  0mm 0 W/m2
03:19 37.8 °F /  3.2 °C 33.7 °F /  0.9 °C 30.34in /  1027.3hPa Calm     85% 0.00in /  0mm 0 W/m2
03:24 37.8 °F /  3.2 °C 33.7 °F /  0.9 °C 30.33in /  1027hPa Calm     85% 0.00in /  0mm 0 W/m2
03:29 37.8 °F /  3.2 °C 33.7 °F /  0.9 °C 30.33in /  1027hPa Calm     85% 0.00in /  0mm 0 W/m2
03:34 37.8 °F /  3.2 °C 33.7 °F /  0.9 °C 30.33in /  1027hPa Calm     85% 0.00in /  0mm 0 W/m2
03:39 37.7 °F /  3.2 °C 33.7 °F /  0.9 °C 30.33in /  1027hPa Calm     85.2% 0.00in /  0mm 0 W/m2
03:44 37.8 °F /  3.2 °C 34 °F /  1.1 °C 30.33in /  1027hPa Calm     86% 0.00in /  0mm 0 W/m2
03:49 37.7 °F /  3.2 °C 33.9 °F /  1.1 °C 30.33in /  1027hPa Calm     86% 0.00in /  0mm 0 W/m2
03:54 37.6 °F /  3.1 °C 33.5 °F /  0.8 °C 30.33in /  1027hPa Calm     85% 0.00in /  0mm 0 W/m2
03:59 37.5 °F /  3.1 °C 33.6 °F /  0.9 °C 30.33in /  1027hPa Calm     85.6% 0.00in /  0mm 0 W/m2
04:09 37.4 °F /  3 °C 33.6 °F /  0.9 °C 30.33in /  1027hPa Calm     86% 0.00in /  0mm 0 W/m2
04:14 37.4 °F /  3 °C 33.6 °F /  0.9 °C 30.33in /  1027hPa Calm     86% 0.00in /  0mm 0 W/m2
04:19 37.3 °F /  2.9 °C 33.5 °F /  0.8 °C 30.33in /  1027hPa Calm     86% 0.00in /  0mm 0 W/m2
04:24 37.3 °F /  2.9 °C 33.5 °F /  0.8 °C 30.32in /  1026.6hPa Calm     86% 0.00in /  0mm 0 W/m2
04:29 37.3 °F /  2.9 °C 33.6 °F /  0.9 °C 30.32in /  1026.6hPa Calm     86.5% 0.00in /  0mm 0 W/m2
04:34 37.3 °F /  2.9 °C 33.8 °F /  1 °C 30.32in /  1026.6hPa Calm     87% 0.00in /  0mm 0 W/m2
04:39 37.3 °F /  2.9 °C 33.8 °F /  1 °C 30.32in /  1026.6hPa Calm     87% 0.00in /  0mm 0 W/m2
04:44 37.4 °F /  3 °C 33.9 °F /  1.1 °C 30.32in /  1026.6hPa Calm     87% 0.00in /  0mm 0 W/m2
04:49 37.4 °F /  3 °C 33.9 °F /  1.1 °C 30.32in /  1026.6hPa Calm     87% 0.00in /  0mm 0 W/m2
04:54 37.5 °F /  3.1 °C 34 °F /  1.1 °C 30.32in /  1026.6hPa Calm     87% 0.00in /  0mm 0 W/m2
04:59 37.5 °F /  3.1 °C 34.1 °F /  1.2 °C 30.32in /  1026.6hPa Calm     87.3% 0.00in /  0mm 0 W/m2
05:04 37.6 °F /  3.1 °C 34.1 °F /  1.2 °C 30.32in /  1026.6hPa Calm     87.3% 0.00in /  0mm 0 W/m2
05:09 37.6 °F /  3.1 °C 34.4 °F /  1.3 °C 30.32in /  1026.6hPa Calm     88% 0.00in /  0mm 0 W/m2
05:14 37.6 °F /  3.1 °C 34.4 °F /  1.3 °C 30.32in /  1026.6hPa Calm     88% 0.00in /  0mm 0 W/m2
05:19 37.6 °F /  3.1 °C 34.4 °F /  1.3 °C 30.32in /  1026.6hPa Calm     88% 0.00in /  0mm 0 W/m2
05:24 37.7 °F /  3.2 °C 34.4 °F /  1.3 °C 30.32in /  1026.6hPa Calm     88% 0.00in /  0mm 0 W/m2
05:29 37.7 °F /  3.2 °C 34.5 °F /  1.4 °C 30.32in /  1026.6hPa Calm     88% 0.00in /  0mm 0 W/m2
05:34 37.7 °F /  3.2 °C 34.5 °F /  1.4 °C 30.32in /  1026.6hPa Calm     88% 0.00in /  0mm 0 W/m2
05:39 37.7 °F /  3.2 °C 34.5 °F /  1.4 °C 30.32in /  1026.6hPa Calm     88% 0.00in /  0mm 0 W/m2
05:44 37.8 °F /  3.2 °C 34.5 °F /  1.4 °C 30.32in /  1026.6hPa Calm     88% 0.00in /  0mm 0 W/m2
05:49 37.8 °F /  3.2 °C 34.6 °F /  1.4 °C 30.31in /  1026.3hPa Calm     88% 0.00in /  0mm 0 W/m2
05:54 37.9 °F /  3.3 °C 34.7 °F /  1.5 °C 30.32in /  1026.6hPa Calm     88.2% 0.00in /  0mm 0 W/m2
05:59 37.9 °F /  3.3 °C 34.9 °F /  1.6 °C 30.32in /  1026.6hPa Calm     88.9% 0.00in /  0mm 0 W/m2
06:04 38 °F /  3.3 °C 35.1 °F /  1.7 °C 30.32in /  1026.6hPa Calm     89% 0.00in /  0mm 0 W/m2
06:09 38 °F /  3.3 °C 35.1 °F /  1.7 °C 30.32in /  1026.6hPa Calm     89% 0.00in /  0mm 0 W/m2
06:14 38 °F /  3.3 °C 35.1 °F /  1.7 °C 30.32in /  1026.6hPa Calm     89% 0.00in /  0mm 0 W/m2
06:19 38 °F /  3.3 °C 35.1 °F /  1.7 °C 30.31in /  1026.3hPa Calm     89% 0.00in /  0mm 0 W/m2
06:24 38 °F /  3.3 °C 35.1 °F /  1.7 °C 30.31in /  1026.3hPa Calm     89% 0.00in /  0mm 0 W/m2
06:29 38.1 °F /  3.4 °C 35.1 °F /  1.7 °C 30.31in /  1026.3hPa Calm     89% 0.00in /  0mm 0 W/m2
06:34 38.2 °F /  3.4 °C 35.2 °F /  1.8 °C 30.31in /  1026.3hPa Calm     89% 0.00in /  0mm 0 W/m2
06:39 38.3 °F /  3.5 °C 35.3 °F /  1.8 °C 30.31in /  1026.3hPa Calm     89% 0.00in /  0mm 0 W/m2
06:44 38.3 °F /  3.5 °C 35.3 °F /  1.8 °C 30.31in /  1026.3hPa Calm     89% 0.00in /  0mm 0 W/m2
06:49 38.3 °F /  3.5 °C 35.3 °F /  1.8 °C 30.31in /  1026.3hPa Calm     88.7% 0.00in /  0mm 0 W/m2
06:54 38.3 °F /  3.5 °C 35.2 °F /  1.8 °C 30.31in /  1026.3hPa Calm     88.6% 0.00in /  0mm 0 W/m2
06:59 38.2 °F /  3.4 °C 35.3 °F /  1.8 °C 30.31in /  1026.3hPa Calm     89% 0.00in /  0mm 5 W/m2
07:04 38.2 °F /  3.4 °C 35.1 °F /  1.7 °C 30.31in /  1026.3hPa Calm     88.4% 0.00in /  0mm 7 W/m2
07:09 38.2 °F /  3.4 °C 35 °F /  1.7 °C 30.31in /  1026.3hPa Calm     88% 0.00in /  0mm 11 W/m2
07:14 38.2 °F /  3.4 °C 35.2 °F /  1.8 °C 30.31in /  1026.3hPa Calm     88.8% 0.00in /  0mm 12 W/m2
07:19 38.2 °F /  3.4 °C 35.2 °F /  1.8 °C 30.31in /  1026.3hPa Calm     89% 0.00in /  0mm 14 W/m2
07:24 38.2 °F /  3.4 °C 35.3 °F /  1.8 °C 30.31in /  1026.3hPa Calm     89% 0.00in /  0mm 18 W/m2
07:29 38.3 °F /  3.5 °C 35.3 °F /  1.8 °C 30.31in /  1026.3hPa Calm     89% 0.00in /  0mm 21 W/m2
07:34 38.3 °F /  3.5 °C 35.3 °F /  1.8 °C 30.31in /  1026.3hPa Calm     89% 0.00in /  0mm 25 W/m2
07:39 38.3 °F /  3.5 °C 35.4 °F /  1.9 °C 30.31in /  1026.3hPa Calm     89% 0.00in /  0mm 30 W/m2
07:44 38.4 °F /  3.6 °C 35.5 °F /  1.9 °C 30.31in /  1026.3hPa Calm     89% 0.00in /  0mm 42 W/m2
07:49 38.4 °F /  3.6 °C 35.5 °F /  1.9 °C 30.31in /  1026.3hPa Calm     89% 0.00in /  0mm 46 W/m2
07:54 38.4 °F /  3.6 °C 35.5 °F /  1.9 °C 30.31in /  1026.3hPa Calm     89% 0.00in /  0mm 42 W/m2
07:59 38.4 °F /  3.6 °C 35.4 °F /  1.9 °C 30.31in /  1026.3hPa Calm     89% 0.00in /  0mm 47 W/m2
08:09 38.5 °F /  3.6 °C 35.5 °F /  1.9 °C 30.31in /  1026.3hPa Calm   1mph /  1.6km/h 89% 0.00in /  0mm 70 W/m2
08:14 38.7 °F /  3.7 °C 35.7 °F /  2.1 °C 30.31in /  1026.3hPa Calm   1mph /  1.6km/h 89% 0.00in /  0mm 123 W/m2
08:19 39 °F /  3.9 °C 36.3 °F /  2.4 °C 30.31in /  1026.3hPa Calm   1mph /  1.6km/h 90% 0.00in /  0mm 86 W/m2
08:24 39.3 °F /  4.1 °C 36.3 °F /  2.4 °C 30.31in /  1026.3hPa Calm   1mph /  1.6km/h 89% 0.00in /  0mm 65 W/m2
08:29 39.6 °F /  4.2 °C 36.7 °F /  2.6 °C 30.30in /  1026hPa Calm   1mph /  1.6km/h 89% 0.00in /  0mm 72 W/m2
08:34 39.9 °F /  4.4 °C 36.8 °F /  2.7 °C 30.30in /  1026hPa Calm   1mph /  1.6km/h 88.6% 0.00in /  0mm 118 W/m2
08:39 40.1 °F /  4.5 °C 36.9 °F /  2.7 °C 30.30in /  1026hPa Calm     88% 0.00in /  0mm 260 W/m2
08:44 40.7 °F /  4.8 °C 37.4 °F /  3 °C 30.30in /  1026hPa Calm     88% 0.00in /  0mm 279 W/m2
08:49 41.6 °F /  5.3 °C 38.1 °F /  3.4 °C 30.30in /  1026hPa Calm     87.3% 0.00in /  0mm 278 W/m2
08:54 42.6 °F /  5.9 °C 38.6 °F /  3.7 °C 30.30in /  1026hPa Calm     85.5% 0.00in /  0mm 283 W/m2
08:59 43.4 °F /  6.3 °C 38.5 °F /  3.6 °C 30.30in /  1026hPa South 0.1mph /  0.2km/h 3mph /  4.8km/h 82.7% 0.00in /  0mm 116 W/m2
09:04 43.9 °F /  6.6 °C 38.2 °F /  3.4 °C 30.30in /  1026hPa South 0.2mph /  0.3km/h 3mph /  4.8km/h 80.4% 0.00in /  0mm 77 W/m2
09:09 44.1 °F /  6.7 °C 38.1 °F /  3.4 °C 30.30in /  1026hPa Calm   2mph /  3.2km/h 79.4% 0.00in /  0mm 109 W/m2
09:14 44.3 °F /  6.8 °C 38.2 °F /  3.4 °C 30.30in /  1026hPa Calm   2mph /  3.2km/h 79% 0.00in /  0mm 148 W/m2
09:19 44.7 °F /  7.1 °C 38.8 °F /  3.8 °C 30.30in /  1026hPa Calm   2mph /  3.2km/h 79.7% 0.00in /  0mm 158 W/m2
09:24 45.2 °F /  7.3 °C 38.9 °F /  3.8 °C 30.30in /  1026hPa South 0.1mph /  0.2km/h 2mph /  3.2km/h 78.5% 0.00in /  0mm 214 W/m2
09:29 45.7 °F /  7.6 °C 38.9 °F /  3.8 °C 30.29in /  1025.6hPa South 0.1mph /  0.2km/h 2mph /  3.2km/h 76.9% 0.00in /  0mm 169 W/m2
09:34 46 °F /  7.8 °C 38.6 °F /  3.7 °C 30.29in /  1025.6hPa Calm   2mph /  3.2km/h 75.1% 0.00in /  0mm 100 W/m2
09:39 46.2 °F /  7.9 °C 38.5 °F /  3.6 °C 30.29in /  1025.6hPa South 0.2mph /  0.3km/h 3mph /  4.8km/h 74.4% 0.00in /  0mm 107 W/m2
09:44 46.3 °F /  7.9 °C 38.5 °F /  3.6 °C 30.29in /  1025.6hPa Calm   3mph /  4.8km/h 74% 0.00in /  0mm 160 W/m2
09:49 46.4 °F /  8 °C 38.6 °F /  3.7 °C 30.29in /  1025.6hPa Calm   3mph /  4.8km/h 74% 0.00in /  0mm 190 W/m2
09:54 46.6 °F /  8.1 °C 38.7 °F /  3.7 °C 30.29in /  1025.6hPa Calm   3mph /  4.8km/h 73.7% 0.00in /  0mm 190 W/m2
09:59 46.9 °F /  8.3 °C 38.4 °F /  3.6 °C 30.29in /  1025.6hPa Calm   3mph /  4.8km/h 72.3% 0.00in /  0mm 190 W/m2
10:04 47.2 °F /  8.4 °C 38.6 °F /  3.7 °C 30.29in /  1025.6hPa Calm   3mph /  4.8km/h 71.9% 0.00in /  0mm 381 W/m2
10:09 47.7 °F /  8.7 °C 39.1 °F /  3.9 °C 30.29in /  1025.6hPa South 0.1mph /  0.2km/h 3mph /  4.8km/h 72% 0.00in /  0mm 262 W/m2
10:14 48.2 °F /  9 °C 39 °F /  3.9 °C 30.28in /  1025.3hPa South 0.2mph /  0.3km/h 3mph /  4.8km/h 70.2% 0.00in /  0mm 336 W/m2
10:19 48.6 °F /  9.2 °C 38.7 °F /  3.7 °C 30.29in /  1025.6hPa South 0.2mph /  0.3km/h 3mph /  4.8km/h 68.6% 0.00in /  0mm 336 W/m2
10:24 48.8 °F /  9.3 °C 38.5 °F /  3.6 °C 30.28in /  1025.3hPa South 0.3mph /  0.5km/h 3mph /  4.8km/h 67.4% 0.00in /  0mm 461 W/m2
10:29 49.2 °F /  9.6 °C 38.7 °F /  3.7 °C 30.28in /  1025.3hPa Calm   3mph /  4.8km/h 67% 0.00in /  0mm 468 W/m2
10:34 49.6 °F /  9.8 °C 38.9 °F /  3.8 °C 30.28in /  1025.3hPa Calm   3mph /  4.8km/h 66.5% 0.00in /  0mm 418 W/m2
10:39 50 °F /  10 °C 38.8 °F /  3.8 °C 30.27in /  1024.9hPa South 0.3mph /  0.5km/h 3mph /  4.8km/h 65.2% 0.00in /  0mm 480 W/m2
10:44 50.4 °F /  10.2 °C 38.5 °F /  3.6 °C 30.27in /  1024.9hPa Calm   3mph /  4.8km/h 63.5% 0.00in /  0mm 267 W/m2
10:49 50.9 °F /  10.5 °C 38.6 °F /  3.7 °C 30.26in /  1024.6hPa South 0.6mph /  1km/h 5mph /  8km/h 62.7% 0.00in /  0mm 230 W/m2
10:54 51.2 °F /  10.7 °C 38.8 °F /  3.8 °C 30.26in /  1024.6hPa South 0.2mph /  0.3km/h 5mph /  8km/h 62.4% 0.00in /  0mm 432 W/m2
10:59 51.5 °F /  10.8 °C 38.2 °F /  3.4 °C 30.26in /  1024.6hPa SSW 0.5mph /  0.8km/h 5mph /  8km/h 60.3% 0.00in /  0mm 385 W/m2
11:04 51.5 °F /  10.8 °C 38.3 °F /  3.5 °C 30.25in /  1024.3hPa SSW 0.9mph /  1.4km/h 5mph /  8km/h 60.4% 0.00in /  0mm 250 W/m2
11:09 51.6 °F /  10.9 °C 38.2 °F /  3.4 °C 30.25in /  1024.3hPa SSW 1.4mph /  2.3km/h 4mph /  6.4km/h 60.2% 0.00in /  0mm 374 W/m2
11:14 51.6 °F /  10.9 °C 38.4 °F /  3.6 °C 30.25in /  1024.3hPa Calm   4mph /  6.4km/h 60.3% 0.00in /  0mm 374 W/m2
11:19 52 °F /  11.1 °C 38.8 °F /  3.8 °C 30.24in /  1023.9hPa SSW 0.3mph /  0.5km/h 4mph /  6.4km/h 60.7% 0.00in /  0mm 318 W/m2
11:24 52.3 °F /  11.3 °C 38.4 °F /  3.6 °C 30.24in /  1023.9hPa Calm   4mph /  6.4km/h 59% 0.00in /  0mm 269 W/m2
11:29 52.7 °F /  11.5 °C 39 °F /  3.9 °C 30.24in /  1023.9hPa SSW 0.3mph /  0.5km/h 5mph /  8km/h 59.5% 0.00in /  0mm 116 W/m2
11:34 53.1 °F /  11.7 °C 39.4 °F /  4.1 °C 30.23in /  1023.6hPa Calm   5mph /  8km/h 59.7% 0.00in /  0mm 155 W/m2
11:39 53.4 °F /  11.9 °C 38.5 °F /  3.6 °C 30.23in /  1023.6hPa SSW 0.6mph /  1km/h 4mph /  6.4km/h 57% 0.00in /  0mm 269 W/m2
11:44 53.7 °F /  12.1 °C 37.6 °F /  3.1 °C 30.22in /  1023.2hPa SSW 0.1mph /  0.2km/h 4mph /  6.4km/h 54.2% 0.00in /  0mm 241 W/m2
11:49 54.1 °F /  12.3 °C 38.3 °F /  3.5 °C 30.22in /  1023.2hPa Calm   4mph /  6.4km/h 55% 0.00in /  0mm 221 W/m2
11:54 54.3 °F /  12.4 °C 38.5 °F /  3.6 °C 30.22in /  1023.2hPa Calm   4mph /  6.4km/h 55.1% 0.00in /  0mm 207 W/m2
11:59 54.4 °F /  12.4 °C 38.8 °F /  3.8 °C 30.21in /  1022.9hPa South 0.5mph /  0.8km/h 4mph /  6.4km/h 55.6% 0.00in /  0mm 257 W/m2
12:09 54.5 °F /  12.5 °C 35 °F /  1.7 °C 30.21in /  1022.9hPa South 1.5mph /  2.4km/h 5mph /  8km/h 47.7% 0.00in /  0mm 276 W/m2
12:14 54.7 °F /  12.6 °C 34.6 °F /  1.4 °C 30.20in /  1022.6hPa SSW 1.4mph /  2.3km/h 6mph /  9.7km/h 46.4% 0.00in /  0mm 223 W/m2
12:19 55 °F /  12.8 °C 34.1 °F /  1.2 °C 30.20in /  1022.6hPa SSW 1.3mph /  2.1km/h 6mph /  9.7km/h 45% 0.00in /  0mm 246 W/m2
12:24 55.1 °F /  12.8 °C 34.2 °F /  1.2 °C 30.20in /  1022.6hPa SSW 0.9mph /  1.4km/h 6mph /  9.7km/h 45% 0.00in /  0mm 135 W/m2
12:29 55.3 °F /  12.9 °C 34.4 °F /  1.3 °C 30.20in /  1022.6hPa SSW 1.3mph /  2.1km/h 6mph /  9.7km/h 45.2% 0.00in /  0mm 181 W/m2
12:34 55.4 °F /  13 °C 34.2 °F /  1.2 °C 30.20in /  1022.6hPa SSW 1.1mph /  1.8km/h 6mph /  9.7km/h 44.6% 0.00in /  0mm 202 W/m2
12:39 55.6 °F /  13.1 °C 34.5 °F /  1.4 °C 30.19in /  1022.2hPa SSW 1.7mph /  2.7km/h 7mph /  11.3km/h 44.9% 0.00in /  0mm 130 W/m2
12:44 55.8 °F /  13.2 °C 34.5 °F /  1.4 °C 30.19in /  1022.2hPa SW 1.4mph /  2.3km/h 7mph /  11.3km/h 44.5% 0.00in /  0mm 132 W/m2
12:49 56 °F /  13.3 °C 34 °F /  1.1 °C 30.18in /  1021.9hPa SSW 1.6mph /  2.6km/h 7mph /  11.3km/h 43.3% 0.00in /  0mm 239 W/m2
12:54 56 °F /  13.3 °C 33.2 °F /  0.7 °C 30.18in /  1021.9hPa SSW 1.7mph /  2.7km/h 8mph /  12.9km/h 42% 0.00in /  0mm 336 W/m2
12:59 55.9 °F /  13.3 °C 33.7 °F /  0.9 °C 30.18in /  1021.9hPa SSW 0.7mph /  1.1km/h 8mph /  12.9km/h 42.8% 0.00in /  0mm 338 W/m2
13:04 56 °F /  13.3 °C 33.8 °F /  1 °C 30.17in /  1021.6hPa SW 1.6mph /  2.6km/h 8mph /  12.9km/h 43% 0.00in /  0mm 301 W/m2
13:09 56.1 °F /  13.4 °C 34.4 °F /  1.3 °C 30.17in /  1021.6hPa SSW 1.5mph /  2.4km/h 6mph /  9.7km/h 43.8% 0.00in /  0mm 253 W/m2
13:14 56.1 °F /  13.4 °C 33.6 °F /  0.9 °C 30.17in /  1021.6hPa SSW 1.1mph /  1.8km/h 6mph /  9.7km/h 42.5% 0.00in /  0mm 160 W/m2
13:19 56 °F /  13.3 °C 34.5 °F /  1.4 °C 30.17in /  1021.6hPa SW 1mph /  1.6km/h 6mph /  9.7km/h 44.2% 0.00in /  0mm 144 W/m2
13:24 56 °F /  13.3 °C 34.2 °F /  1.2 °C 30.17in /  1021.6hPa SW 0.7mph /  1.1km/h 6mph /  9.7km/h 43.7% 0.00in /  0mm 148 W/m2
13:29 56.1 °F /  13.4 °C 34.5 °F /  1.4 °C 30.16in /  1021.2hPa SW 1.3mph /  2.1km/h 6mph /  9.7km/h 44% 0.00in /  0mm 260 W/m2
13:34 56.3 °F /  13.5 °C 34.4 °F /  1.3 °C 30.16in /  1021.2hPa SW 0.5mph /  0.8km/h 6mph /  9.7km/h 43.5% 0.00in /  0mm 225 W/m2
13:39 56.4 °F /  13.6 °C 34.6 °F /  1.4 °C 30.15in /  1020.9hPa SW 1.7mph /  2.7km/h 7mph /  11.3km/h 43.7% 0.00in /  0mm 176 W/m2
13:44 56.4 °F /  13.6 °C 33.9 °F /  1.1 °C 30.15in /  1020.9hPa SW 3.1mph /  5km/h 8mph /  12.9km/h 42.4% 0.00in /  0mm 169 W/m2
13:49 56.4 °F /  13.6 °C 33.8 °F /  1 °C 30.15in /  1020.9hPa SW 1.6mph /  2.6km/h 9mph /  14.5km/h 42.3% 0.00in /  0mm 232 W/m2
13:54 56.4 °F /  13.6 °C 34.2 °F /  1.2 °C 30.15in /  1020.9hPa SW 1.4mph /  2.3km/h 9mph /  14.5km/h 43% 0.00in /  0mm 229 W/m2
13:59 56.5 °F /  13.6 °C 34.4 °F /  1.3 °C 30.14in /  1020.5hPa SW 1mph /  1.6km/h 9mph /  14.5km/h 43.1% 0.00in /  0mm 155 W/m2
14:04 56.4 °F /  13.6 °C 34.7 °F /  1.5 °C 30.14in /  1020.5hPa SW 0.3mph /  0.5km/h 9mph /  14.5km/h 43.8% 0.00in /  0mm 130 W/m2
14:09 56.4 °F /  13.6 °C 35.5 °F /  1.9 °C 30.14in /  1020.5hPa SW 0.7mph /  1.1km/h 4mph /  6.4km/h 45.2% 0.00in /  0mm 123 W/m2
14:14 56.3 °F /  13.5 °C 36.6 °F /  2.6 °C 30.14in /  1020.5hPa SSW 1.3mph /  2.1km/h 7mph /  11.3km/h 47.5% 0.00in /  0mm 128 W/m2
14:19 56 °F /  13.3 °C 37.2 °F /  2.9 °C 30.14in /  1020.5hPa SSW 1.9mph /  3.1km/h 7mph /  11.3km/h 49% 0.00in /  0mm 128 W/m2
14:24 55.8 °F /  13.2 °C 37.6 °F /  3.1 °C 30.13in /  1020.2hPa SSW 3.9mph /  6.3km/h 10mph /  16.1km/h 50.4% 0.00in /  0mm 118 W/m2
14:29 55.3 °F /  12.9 °C 37.5 °F /  3.1 °C 30.13in /  1020.2hPa South 1.6mph /  2.6km/h 10mph /  16.1km/h 50.9% 0.00in /  0mm 95 W/m2
14:34 55.1 °F /  12.8 °C 37.8 °F /  3.2 °C 30.13in /  1020.2hPa South 1.7mph /  2.7km/h 10mph /  16.1km/h 52% 0.00in /  0mm 100 W/m2
14:39 54.9 °F /  12.7 °C 37.8 °F /  3.2 °C 30.13in /  1020.2hPa South 1.1mph /  1.8km/h 5mph /  8km/h 52.5% 0.00in /  0mm 104 W/m2
14:44 55 °F /  12.8 °C 38 °F /  3.3 °C 30.13in /  1020.2hPa South 0.8mph /  1.3km/h 5mph /  8km/h 52.6% 0.00in /  0mm 100 W/m2
14:49 55 °F /  12.8 °C 37.9 °F /  3.3 °C 30.13in /  1020.2hPa South 1.5mph /  2.4km/h 11mph /  17.7km/h 52.4% 0.00in /  0mm 97 W/m2
14:54 54.9 °F /  12.7 °C 38.3 °F /  3.5 °C 30.12in /  1019.9hPa South 0.2mph /  0.3km/h 11mph /  17.7km/h 53.3% 0.00in /  0mm 93 W/m2
14:59 54.9 °F /  12.7 °C 39 °F /  3.9 °C 30.12in /  1019.9hPa SSW 1.6mph /  2.6km/h 11mph /  17.7km/h 54.9% 0.00in /  0mm 93 W/m2
15:04 55 °F /  12.8 °C 39.1 °F /  3.9 °C 30.12in /  1019.9hPa SSW 2.7mph /  4.3km/h 11mph /  17.7km/h 55% 0.00in /  0mm 88 W/m2
15:09 54.9 °F /  12.7 °C 39.1 °F /  3.9 °C 30.12in /  1019.9hPa SW 1.8mph /  2.9km/h 7mph /  11.3km/h 55.2% 0.00in /  0mm 69 W/m2
15:14 54.7 °F /  12.6 °C 39.1 °F /  3.9 °C 30.12in /  1019.9hPa SSW 1.7mph /  2.7km/h 7mph /  11.3km/h 55.5% 0.00in /  0mm 60 W/m2
15:19 54.5 °F /  12.5 °C 39.1 °F /  3.9 °C 30.12in /  1019.9hPa SW 0.7mph /  1.1km/h 7mph /  11.3km/h 56% 0.00in /  0mm 46 W/m2
15:24 54.3 °F /  12.4 °C 39.2 °F /  4 °C 30.12in /  1019.9hPa SSW 1.3mph /  2.1km/h 7mph /  11.3km/h 56.6% 0.00in /  0mm 35 W/m2
15:29 54.1 °F /  12.3 °C 39.4 °F /  4.1 °C 30.12in /  1019.9hPa SSW 0.8mph /  1.3km/h 7mph /  11.3km/h 57.4% 0.00in /  0mm 33 W/m2
15:34 53.8 °F /  12.1 °C 39.7 °F /  4.3 °C 30.12in /  1019.9hPa SSW 0.6mph /  1km/h 7mph /  11.3km/h 58.5% 0.00in /  0mm 32 W/m2
15:39 53.6 °F /  12 °C 39.7 °F /  4.3 °C 30.12in /  1019.9hPa SSW 0.6mph /  1km/h 4mph /  6.4km/h 59.2% 0.00in /  0mm 26 W/m2
15:44 53.3 °F /  11.8 °C 39.8 °F /  4.3 °C 30.12in /  1019.9hPa SSW 1mph /  1.6km/h 5mph /  8km/h 60% 0.00in /  0mm 21 W/m2
15:49 53 °F /  11.7 °C 39.6 °F /  4.2 °C 30.12in /  1019.9hPa SSW 0.7mph /  1.1km/h 6mph /  9.7km/h 60.1% 0.00in /  0mm 19 W/m2
15:54 52.8 °F /  11.6 °C 39.7 °F /  4.3 °C 30.12in /  1019.9hPa SSW 0.4mph /  0.6km/h 6mph /  9.7km/h 61% 0.00in /  0mm 16 W/m2
15:59 52.6 °F /  11.4 °C 39.5 °F /  4.2 °C 30.12in /  1019.9hPa SSW 1.1mph /  1.8km/h 6mph /  9.7km/h 61% 0.00in /  0mm 11 W/m2
16:09 52.2 °F /  11.2 °C 39.4 °F /  4.1 °C 30.12in /  1019.9hPa SSW 0.9mph /  1.4km/h 5mph /  8km/h 61.4% 0.00in /  0mm 7 W/m2
16:14 52.1 °F /  11.2 °C 39.5 °F /  4.2 °C 30.12in /  1019.9hPa SSW 0.4mph /  0.6km/h 5mph /  8km/h 62% 0.00in /  0mm 5 W/m2
16:19 51.9 °F /  11.1 °C 39.5 °F /  4.2 °C 30.12in /  1019.9hPa SSW 2.3mph /  3.7km/h 7mph /  11.3km/h 62.3% 0.00in /  0mm 0 W/m2
16:24 51.9 °F /  11.1 °C 39.7 °F /  4.3 °C 30.12in /  1019.9hPa South 1mph /  1.6km/h 7mph /  11.3km/h 63% 0.00in /  0mm 0 W/m2
16:29 51.8 °F /  11 °C 39.6 °F /  4.2 °C 30.12in /  1019.9hPa South 0.3mph /  0.5km/h 7mph /  11.3km/h 63% 0.00in /  0mm 0 W/m2
16:34 51.7 °F /  10.9 °C 39.9 °F /  4.4 °C 30.12in /  1019.9hPa South 0.2mph /  0.3km/h 7mph /  11.3km/h 63.9% 0.00in /  0mm 0 W/m2
16:39 51.6 °F /  10.9 °C 39.8 °F /  4.3 °C 30.12in /  1019.9hPa South 0.1mph /  0.2km/h 3mph /  4.8km/h 64% 0.00in /  0mm 0 W/m2
16:44 51.5 °F /  10.8 °C 39.8 °F /  4.3 °C 30.12in /  1019.9hPa Calm   3mph /  4.8km/h 64.3% 0.00in /  0mm 0 W/m2
16:49 51.3 °F /  10.7 °C 40 °F /  4.4 °C 30.12in /  1019.9hPa Calm   3mph /  4.8km/h 65% 0.00in /  0mm 0 W/m2
16:54 51.2 °F /  10.7 °C 39.9 °F /  4.4 °C 30.11in /  1019.5hPa Calm   3mph /  4.8km/h 65% 0.00in /  0mm 0 W/m2
16:59 51.2 °F /  10.7 °C 40 °F /  4.4 °C 30.11in /  1019.5hPa Calm   3mph /  4.8km/h 65.5% 0.00in /  0mm 0 W/m2
17:04 51.1 °F /  10.6 °C 40.1 °F /  4.5 °C 30.11in /  1019.5hPa Calm   3mph /  4.8km/h 66% 0.00in /  0mm 0 W/m2
17:09 51 °F /  10.6 °C 40.1 °F /  4.5 °C 30.11in /  1019.5hPa South 0.1mph /  0.2km/h 3mph /  4.8km/h 66% 0.00in /  0mm 0 W/m2
17:14 51 °F /  10.6 °C 40.2 °F /  4.6 °C 30.11in /  1019.5hPa Calm   3mph /  4.8km/h 66.4% 0.00in /  0mm 0 W/m2
17:19 51 °F /  10.6 °C 40.4 °F /  4.7 °C 30.11in /  1019.5hPa Calm   3mph /  4.8km/h 67% 0.00in /  0mm 0 W/m2
17:24 51 °F /  10.6 °C 40.4 °F /  4.7 °C 30.11in /  1019.5hPa South 0.3mph /  0.5km/h 4mph /  6.4km/h 67% 0.00in /  0mm 0 W/m2
17:29 51 °F /  10.6 °C 40.8 °F /  4.9 °C 30.11in /  1019.5hPa South 0.1mph /  0.2km/h 4mph /  6.4km/h 68% 0.00in /  0mm 0 W/m2
17:34 51 °F /  10.6 °C 41.2 °F /  5.1 °C 30.11in /  1019.5hPa Calm   4mph /  6.4km/h 69% 0.00in /  0mm 0 W/m2
17:39 51 °F /  10.6 °C 41.4 °F /  5.2 °C 30.11in /  1019.5hPa Calm     69.4% 0.00in /  0mm 0 W/m2
17:44 51 °F /  10.6 °C 41.7 °F /  5.4 °C 30.10in /  1019.2hPa Calm     70.4% 0.00in /  0mm 0 W/m2
17:49 51 °F /  10.6 °C 42.2 °F /  5.7 °C 30.10in /  1019.2hPa South 0.3mph /  0.5km/h 6mph /  9.7km/h 71.7% 0.00in /  0mm 0 W/m2
17:54 51 °F /  10.6 °C 42.5 °F /  5.8 °C 30.10in /  1019.2hPa South 0.3mph /  0.5km/h 6mph /  9.7km/h 72.5% 0.00in /  0mm 0 W/m2
17:59 51 °F /  10.6 °C 42.7 °F /  5.9 °C 30.10in /  1019.2hPa Calm   6mph /  9.7km/h 73% 0.00in /  0mm 0 W/m2
18:04 51 °F /  10.6 °C 42.9 °F /  6.1 °C 30.10in /  1019.2hPa South 0.2mph /  0.3km/h 6mph /  9.7km/h 73.8% 0.00in /  0mm 0 W/m2
18:09 50.9 °F /  10.5 °C 42.9 °F /  6.1 °C 30.09in /  1018.8hPa Calm   3mph /  4.8km/h 74% 0.00in /  0mm 0 W/m2
18:14 50.9 °F /  10.5 °C 43.2 °F /  6.2 °C 30.09in /  1018.8hPa South 0.2mph /  0.3km/h 3mph /  4.8km/h 74.9% 0.00in /  0mm 0 W/m2
18:19 50.9 °F /  10.5 °C 43.3 °F /  6.3 °C 30.09in /  1018.8hPa South 0.1mph /  0.2km/h 3mph /  4.8km/h 75.2% 0.00in /  0mm 0 W/m2
18:24 50.8 °F /  10.4 °C 43.5 °F /  6.4 °C 30.09in /  1018.8hPa South 0.1mph /  0.2km/h 3mph /  4.8km/h 76% 0.00in /  0mm 0 W/m2
18:29 50.8 °F /  10.4 °C 43.5 °F /  6.4 °C 30.09in /  1018.8hPa South 0.1mph /  0.2km/h 3mph /  4.8km/h 76% 0.00in /  0mm 0 W/m2
18:34 50.8 °F /  10.4 °C 43.7 °F /  6.5 °C 30.09in /  1018.8hPa Calm   3mph /  4.8km/h 76.5% 0.00in /  0mm 0 W/m2
18:39 50.8 °F /  10.4 °C 43.9 °F /  6.6 °C 30.09in /  1018.8hPa South 0.2mph /  0.3km/h 3mph /  4.8km/h 77% 0.00in /  0mm 0 W/m2
18:44 50.8 °F /  10.4 °C 43.9 °F /  6.6 °C 30.08in /  1018.5hPa South 0.2mph /  0.3km/h 3mph /  4.8km/h 77.1% 0.00in /  0mm 0 W/m2
18:49 50.9 °F /  10.5 °C 44.3 °F /  6.8 °C 30.08in /  1018.5hPa South 0.2mph /  0.3km/h 3mph /  4.8km/h 78% 0.00in /  0mm 0 W/m2
18:54 50.9 °F /  10.5 °C 44.3 °F /  6.8 °C 30.08in /  1018.5hPa Calm   3mph /  4.8km/h 78% 0.00in /  0mm 0 W/m2
18:59 50.8 °F /  10.4 °C 44.2 °F /  6.8 °C 30.08in /  1018.5hPa South 0.3mph /  0.5km/h 3mph /  4.8km/h 78% 0.00in /  0mm 0 W/m2
19:04 50.9 °F /  10.5 °C 44.4 °F /  6.9 °C 30.07in /  1018.2hPa South 0.2mph /  0.3km/h 3mph /  4.8km/h 78.4% 0.00in /  0mm 0 W/m2
19:09 50.9 °F /  10.5 °C 44.6 °F /  7 °C 30.07in /  1018.2hPa South 0.6mph /  1km/h 3mph /  4.8km/h 79% 0.00in /  0mm 0 W/m2
19:14 50.9 °F /  10.5 °C 44.6 °F /  7 °C 30.07in /  1018.2hPa South 0.1mph /  0.2km/h 3mph /  4.8km/h 79% 0.00in /  0mm 0 W/m2
19:19 50.9 °F /  10.5 °C 44.9 °F /  7.2 °C 30.07in /  1018.2hPa South 0.4mph /  0.6km/h 4mph /  6.4km/h 80% 0.00in /  0mm 0 W/m2
19:24 50.9 °F /  10.5 °C 45 °F /  7.2 °C 30.07in /  1018.2hPa Calm   4mph /  6.4km/h 80% 0.00in /  0mm 0 W/m2
19:29 50.9 °F /  10.5 °C 45 °F /  7.2 °C 30.07in /  1018.2hPa Calm   4mph /  6.4km/h 80% 0.00in /  0mm 0 W/m2
19:34 50.9 °F /  10.5 °C 45.2 °F /  7.3 °C 30.07in /  1018.2hPa Calm   4mph /  6.4km/h 80.7% 0.00in /  0mm 0 W/m2
19:39 50.9 °F /  10.5 °C 45.3 °F /  7.4 °C 30.06in /  1017.8hPa South 0.3mph /  0.5km/h 3mph /  4.8km/h 81% 0.00in /  0mm 0 W/m2
19:44 50.9 °F /  10.5 °C 45.4 °F /  7.4 °C 30.06in /  1017.8hPa South 0.1mph /  0.2km/h 3mph /  4.8km/h 81.5% 0.00in /  0mm 0 W/m2
19:49 50.9 °F /  10.5 °C 45.9 °F /  7.7 °C 30.06in /  1017.8hPa Calm   3mph /  4.8km/h 82.9% 0.01in /  0.25mm 0 W/m2
19:54 50.8 °F /  10.4 °C 46.3 °F /  7.9 °C 30.06in /  1017.8hPa Calm   3mph /  4.8km/h 84.3% 0.01in /  0.25mm 0 W/m2
19:59 50.7 °F /  10.4 °C 46.4 °F /  8 °C 30.06in /  1017.8hPa Calm   3mph /  4.8km/h 85.4% 0.01in /  0.25mm 0 W/m2
20:00 50.6 °F /  10.3 °C 46.6 °F /  8.1 °C 30.06in /  1017.8hPa Calm   3mph /  4.8km/h 86% 0.01in /  0.25mm 0 W/m2
20:09 50.4 °F /  10.2 °C 46.7 °F /  8.2 °C 30.05in /  1017.5hPa Calm     87.1% 0.01in /  0.25mm 0 W/m2
20:14 50.2 °F /  10.1 °C 46.8 °F /  8.2 °C 30.05in /  1017.5hPa Calm     88% 0.02in /  0.51mm 0 W/m2
20:19 50.1 °F /  10.1 °C 46.7 °F /  8.2 °C 30.05in /  1017.5hPa Calm     88% 0.02in /  0.51mm 0 W/m2
20:24 50 °F /  10 °C 46.9 °F /  8.3 °C 30.04in /  1017.2hPa Calm     89% 0.02in /  0.51mm 0 W/m2
20:29 49.9 °F /  9.9 °C 46.8 °F /  8.2 °C 30.03in /  1016.8hPa Calm     89% 0.02in /  0.51mm 0 W/m2
20:34 49.8 °F /  9.9 °C 47 °F /  8.3 °C 30.03in /  1016.8hPa Calm     89.9% 0.02in /  0.51mm 0 W/m2
20:39 49.8 °F /  9.9 °C 47.1 °F /  8.4 °C 30.03in /  1016.8hPa Calm     90.3% 0.02in /  0.51mm 0 W/m2
20:44 49.7 °F /  9.8 °C 47.2 °F /  8.4 °C 30.02in /  1016.5hPa Calm     91% 0.02in /  0.51mm 0 W/m2
20:49 49.7 °F /  9.8 °C 47.2 °F /  8.4 °C 30.03in /  1016.8hPa Calm     91% 0.02in /  0.51mm 0 W/m2
20:54 49.7 °F /  9.8 °C 47.2 °F /  8.4 °C 30.02in /  1016.5hPa Calm     91.3% 0.03in /  0.76mm 0 W/m2
20:59 49.6 °F /  9.8 °C 47.4 °F /  8.6 °C 30.02in /  1016.5hPa Calm   2mph /  3.2km/h 92% 0.03in /  0.76mm 0 W/m2
21:04 49.7 °F /  9.8 °C 47.5 °F /  8.6 °C 30.02in /  1016.5hPa Calm   2mph /  3.2km/h 92% 0.03in /  0.76mm 0 W/m2
21:09 49.7 °F /  9.8 °C 47.5 °F /  8.6 °C 30.02in /  1016.5hPa Calm     92% 0.02in /  0.51mm 0 W/m2
21:14 49.7 °F /  9.8 °C 47.5 °F /  8.6 °C 30.01in /  1016.1hPa Calm     92.2% 0.02in /  0.51mm 0 W/m2
21:19 49.7 °F /  9.8 °C 47.6 °F /  8.7 °C 30.00in /  1015.8hPa South 0.1mph /  0.2km/h 2mph /  3.2km/h 92.5% 0.03in /  0.76mm 0 W/m2
21:24 49.7 °F /  9.8 °C 47.8 °F /  8.8 °C 29.99in /  1015.5hPa Calm   2mph /  3.2km/h 93% 0.03in /  0.76mm 0 W/m2
21:29 49.7 °F /  9.8 °C 47.8 °F /  8.8 °C 29.99in /  1015.5hPa South 0.1mph /  0.2km/h 2mph /  3.2km/h 93% 0.03in /  0.76mm 0 W/m2
21:34 49.7 °F /  9.8 °C 47.8 °F /  8.8 °C 29.98in /  1015.1hPa South 0.5mph /  0.8km/h 5mph /  8km/h 93% 0.03in /  0.76mm 0 W/m2
21:39 49.8 °F /  9.9 °C 47.8 °F /  8.8 °C 29.98in /  1015.1hPa South 0.5mph /  0.8km/h 5mph /  8km/h 93% 0.03in /  0.76mm 0 W/m2
21:44 49.8 °F /  9.9 °C 47.9 °F /  8.8 °C 29.98in /  1015.1hPa South 0.3mph /  0.5km/h 5mph /  8km/h 93% 0.03in /  0.76mm 0 W/m2
21:49 49.9 °F /  9.9 °C 47.9 °F /  8.8 °C 29.97in /  1014.8hPa Calm   5mph /  8km/h 93% 0.03in /  0.76mm 0 W/m2
21:54 49.9 °F /  9.9 °C 48.3 °F /  9.1 °C 29.97in /  1014.8hPa Calm   5mph /  8km/h 94% 0.03in /  0.76mm 0 W/m2
21:59 49.9 °F /  9.9 °C 48.3 °F /  9.1 °C 29.96in /  1014.4hPa Calm   5mph /  8km/h 94% 0.03in /  0.76mm 0 W/m2
22:04 49.9 °F /  9.9 °C 48.3 °F /  9.1 °C 29.96in /  1014.4hPa Calm   5mph /  8km/h 94% 0.03in /  0.76mm 0 W/m2
22:09 50 °F /  10 °C 48.3 °F /  9.1 °C 29.96in /  1014.4hPa Calm     94% 0.02in /  0.51mm 0 W/m2
22:14 50 °F /  10 °C 48.4 °F /  9.1 °C 29.96in /  1014.4hPa Calm     94% 0.02in /  0.51mm 0 W/m2
22:19 50 °F /  10 °C 48.4 °F /  9.1 °C 29.95in /  1014.1hPa Calm     94% 0.02in /  0.51mm 0 W/m2
22:24 50.1 °F /  10.1 °C 48.4 °F /  9.1 °C 29.95in /  1014.1hPa Calm     94% 0.02in /  0.51mm 0 W/m2
22:29 50.1 °F /  10.1 °C 48.5 °F /  9.2 °C 29.95in /  1014.1hPa South 0.4mph /  0.6km/h 3mph /  4.8km/h 94% 0.02in /  0.51mm 0 W/m2
22:34 50.2 °F /  10.1 °C 48.6 °F /  9.2 °C 29.95in /  1014.1hPa South 0.3mph /  0.5km/h 3mph /  4.8km/h 94% 0.02in /  0.51mm 0 W/m2
22:39 50.3 °F /  10.2 °C 48.6 °F /  9.2 °C 29.94in /  1013.8hPa South 0.4mph /  0.6km/h 3mph /  4.8km/h 94% 0.00in /  0mm 0 W/m2
22:44 50.3 °F /  10.2 °C 48.7 °F /  9.3 °C 29.94in /  1013.8hPa South 0.1mph /  0.2km/h 4mph /  6.4km/h 94% 0.00in /  0mm 0 W/m2
22:49 50.4 °F /  10.2 °C 48.7 °F /  9.3 °C 29.94in /  1013.8hPa Calm   4mph /  6.4km/h 94% 0.00in /  0mm 0 W/m2
22:54 50.4 °F /  10.2 °C 48.7 °F /  9.3 °C 29.94in /  1013.8hPa Calm   4mph /  6.4km/h 94% 0.00in /  0mm 0 W/m2
22:59 50.4 °F /  10.2 °C 48.7 °F /  9.3 °C 29.94in /  1013.8hPa Calm   4mph /  6.4km/h 94% 0.00in /  0mm 0 W/m2
23:00 50.5 °F /  10.3 °C 48.8 °F /  9.3 °C 29.93in /  1013.4hPa Calm   4mph /  6.4km/h 94% 0.00in /  0mm 0 W/m2
23:09 50.5 °F /  10.3 °C 49.1 °F /  9.5 °C 29.93in /  1013.4hPa Calm   1mph /  1.6km/h 95% 0.00in /  0mm 0 W/m2
23:14 50.5 °F /  10.3 °C 49.1 °F /  9.5 °C 29.93in /  1013.4hPa South 0.3mph /  0.5km/h 3mph /  4.8km/h 95% 0.00in /  0mm 0 W/m2
23:19 50.6 °F /  10.3 °C 49.2 °F /  9.6 °C 29.92in /  1013.1hPa South 0.2mph /  0.3km/h 3mph /  4.8km/h 95% 0.00in /  0mm 0 W/m2
23:24 50.6 °F /  10.3 °C 49.2 °F /  9.6 °C 29.93in /  1013.4hPa South 0.4mph /  0.6km/h 3mph /  4.8km/h 95% 0.00in /  0mm 0 W/m2
23:29 50.6 °F /  10.3 °C 49.2 °F /  9.6 °C 29.93in /  1013.4hPa South 1mph /  1.6km/h 4mph /  6.4km/h 95% 0.00in /  0mm 0 W/m2
23:34 50.6 °F /  10.3 °C 49.2 °F /  9.6 °C 29.93in /  1013.4hPa Calm   4mph /  6.4km/h 95% 0.00in /  0mm 0 W/m2
23:39 50.6 °F /  10.3 °C 49.2 °F /  9.6 °C 29.93in /  1013.4hPa South 0.1mph /  0.2km/h 3mph /  4.8km/h 95% 0.00in /  0mm 0 W/m2
23:44 50.7 °F /  10.4 °C 49.3 °F /  9.6 °C 29.93in /  1013.4hPa Calm   3mph /  4.8km/h 95% 0.00in /  0mm 0 W/m2
23:49 50.9 °F /  10.5 °C 49.5 °F /  9.7 °C 29.92in /  1013.1hPa South 1.4mph /  2.3km/h 6mph /  9.7km/h 95% 0.00in /  0mm 0 W/m2
23:54 51.1 °F /  10.6 °C 49.7 °F /  9.8 °C 29.91in /  1012.8hPa South 0.5mph /  0.8km/h 6mph /  9.7km/h 95% 0.00in /  0mm 0 W/m2
23:59 51.3 °F /  10.7 °C 49.9 °F /  9.9 °C 29.91in /  1012.8hPa South 1.5mph /  2.4km/h 6mph /  9.7km/h 95% 0.00in /  0mm 0 W/m2
Hartford County Weather
Compliments of Weather Underground - 4 mb